Time;durP1;ratioP1;P1;durP2;ratioP2;P2;SDS_P1;SDS_P2;PMS_P1;PMS_P2;Temp;Humidity;BMP_temperature;BMP_pressure;BME280_temperature;BME280_humidity;BME280_pressure;Samples;Min_cycle;Max_cycle;Signal;HPM_P1;HPM_P2
2023/01/28 00:00:36;;;;;;;26.67;11.35;;;;;;;-0.60;100.00;100193.88;5161023;27;20057;-65
2023/01/28 00:03:02;;;;;;;26.73;12.48;;;;;;;-0.22;100.00;100205.25;5160604;27;20107;-69
2023/01/28 00:05:29;;;;;;;32.00;14.60;;;;;;;-0.25;100.00;100178.84;5160995;27;20073;-66
2023/01/28 00:07:56;;;;;;;31.00;12.38;;;;;;;-0.33;100.00;100180.19;5160556;27;20055;-67
2023/01/28 00:10:22;;;;;;;28.08;12.55;;;;;;;-0.75;100.00;100173.09;5160984;27;20319;-68
2023/01/28 00:12:49;;;;;;;23.55;11.55;;;;;;;-0.90;100.00;100218.00;5160898;27;20051;-68
2023/01/28 00:15:16;;;;;;;30.02;12.75;;;;;;;-0.76;100.00;100230.72;5160903;27;20050;-66
2023/01/28 00:17:42;;;;;;;28.70;11.93;;;;;;;-0.66;100.00;100232.66;5160413;27;20107;-68
2023/01/28 00:20:10;;;;;;;29.65;11.20;;;;;;;-0.78;100.00;100246.31;5160656;27;20114;-68
2023/01/28 00:22:36;;;;;;;29.70;12.43;;;;;;;-0.86;100.00;100249.53;5160359;27;20106;-68
2023/01/28 00:25:03;;;;;;;24.15;11.40;;;;;;;-0.79;100.00;100254.66;5160560;27;20054;-66
2023/01/28 00:27:29;;;;;;;28.75;11.90;;;;;;;-0.62;100.00;100259.84;5160199;27;20399;-69
2023/01/28 00:29:56;;;;;;;31.75;13.10;;;;;;;-0.51;100.00;100251.53;5159175;27;20050;-65
2023/01/28 00:32:23;;;;;;;28.90;12.68;;;;;;;-0.55;100.00;100247.75;5160323;27;20042;-70
2023/01/28 00:34:49;;;;;;;25.80;11.38;;;;;;;-0.78;100.00;100245.50;5160276;27;20308;-66
2023/01/28 00:37:15;;;;;;;28.80;13.18;;;;;;;-1.05;100.00;100249.16;5160364;27;20071;-71
2023/01/28 00:39:41;;;;;;;30.80;13.38;;;;;;;-0.66;100.00;100274.94;5160106;27;20042;-65
2023/01/28 00:42:07;;;;;;;36.25;14.07;;;;;;;-0.95;100.00;100267.25;5160655;27;20065;-69
2023/01/28 00:44:35;;;;;;;31.40;13.93;;;;;;;-0.78;100.00;100275.94;5160033;27;20061;-66
2023/01/28 00:47:02;;;;;;;31.65;12.60;;;;;;;-0.61;100.00;100277.63;5160615;27;20062;-66
2023/01/28 00:49:30;;;;;;;30.15;13.50;;;;;;;-0.60;100.00;100282.75;5160126;27;20047;-69
2023/01/28 00:51:56;;;;;;;32.05;12.23;;;;;;;-0.64;100.00;100280.84;5159876;27;20114;-67
2023/01/28 00:54:22;;;;;;;31.08;12.68;;;;;;;-0.86;100.00;100271.06;5160183;27;20297;-67
2023/01/28 00:56:48;;;;;;;28.75;12.05;;;;;;;-0.81;100.00;100276.47;5159877;27;20054;-69
2023/01/28 00:59:15;;;;;;;34.22;12.90;;;;;;;-0.74;100.00;100282.41;5159936;27;20439;-67
2023/01/28 01:01:41;;;;;;;30.15;12.68;;;;;;;-0.75;100.00;100285.38;5159737;27;20051;-69
2023/01/28 01:04:08;;;;;;;31.52;13.13;;;;;;;-0.66;100.00;100278.44;5160046;27;20046;-67
2023/01/28 01:06:36;;;;;;;32.55;12.13;;;;;;;-0.79;100.00;100278.91;5159616;27;20061;-70
2023/01/28 01:09:05;;;;;;;31.00;12.60;;;;;;;-0.71;100.00;100283.78;5159936;27;20051;-70
2023/01/28 01:11:31;;;;;;;31.20;13.70;;;;;;;-0.66;100.00;100270.34;5159538;27;20401;-68
2023/01/28 01:13:59;;;;;;;38.72;14.32;;;;;;;-0.91;100.00;100276.41;5160002;27;20050;-71
2023/01/28 01:16:28;;;;;;;31.45;13.93;;;;;;;-0.60;100.00;100281.94;5159667;27;20046;-67
2023/01/28 01:18:54;;;;;;;31.60;15.15;;;;;;;-0.52;100.00;100271.47;5159775;27;20083;-68
2023/01/28 01:21:23;;;;;;;36.03;14.32;;;;;;;-0.34;100.00;100272.06;5159315;27;20051;-68
2023/01/28 01:23:50;;;;;;;31.23;14.00;;;;;;;-0.53;100.00;100259.09;5159812;27;20118;-71
2023/01/28 01:26:17;;;;;;;28.98;12.75;;;;;;;-0.66;100.00;100250.69;5159689;27;20043;-71
2023/01/28 01:28:43;;;;;;;32.17;14.63;;;;;;;-0.67;100.00;100241.78;5159241;27;20061;-67
2023/01/28 01:31:12;;;;;;;35.13;13.32;;;;;;;-0.94;100.00;100244.63;5159567;27;20079;-66
2023/01/28 01:33:39;;;;;;;35.33;14.10;;;;;;;-1.12;100.00;100266.63;5159209;27;20060;-66
2023/01/28 01:36:06;;;;;;;26.75;11.65;;;;;;;-1.03;100.00;100268.56;5159491;27;20079;-67
2023/01/28 01:38:34;;;;;;;26.30;12.77;;;;;;;-0.83;100.00;100273.25;5159302;27;20050;-64
2023/01/28 01:41:01;;;;;;;30.67;12.85;;;;;;;-1.11;100.00;100266.34;5159466;27;20441;-66
2023/01/28 01:43:49;;;;;;;26.38;10.90;;;;;;;-1.26;100.00;100266.28;5159252;27;20046;-64
2023/01/28 01:46:20;;;;;;;32.83;12.95;;;;;;;-1.35;100.00;100281.28;5159177;27;20066;-68
2023/01/28 01:48:46;;;;;;;28.08;12.15;;;;;;;-1.45;100.00;100284.69;5159111;27;20057;-69
2023/01/28 01:51:16;;;;;;;23.48;10.68;;;;;;;-1.33;100.00;100285.31;5159029;27;20050;-69
2023/01/28 01:53:48;;;;;;;25.83;12.57;;;;;;;-0.87;100.00;100296.34;5159240;27;20060;-66
2023/01/28 01:56:20;;;;;;;24.60;12.10;;;;;;;-1.35;100.00;100298.22;5158848;27;20344;-66
2023/01/28 01:58:49;;;;;;;29.50;12.98;;;;;;;-1.36;100.00;100296.59;5159196;27;20051;-68
2023/01/28 02:01:17;;;;;;;29.92;13.43;;;;;;;-1.10;100.00;100299.44;5158731;27;20376;-68
2023/01/28 02:03:52;;;;;;;27.67;11.40;;;;;;;-1.11;100.00;100282.50;5158881;27;20079;-67
2023/01/28 02:06:19;;;;;;;27.50;12.13;;;;;;;-1.03;100.00;100283.91;5158959;27;20137;-68
2023/01/28 02:08:46;;;;;;;29.75;12.55;;;;;;;-0.84;100.00;100278.88;5158814;27;20051;-69
2023/01/28 02:11:14;;;;;;;29.10;12.35;;;;;;;-0.76;100.00;100286.47;5158805;27;20047;-66
2023/01/28 02:13:44;;;;;;;28.50;13.00;;;;;;;-0.73;100.00;100259.81;5158700;27;20047;-68
2023/01/28 02:16:12;;;;;;;33.05;12.50;;;;;;;-0.54;100.00;100262.03;5158702;27;20054;-67
2023/01/28 02:18:38;;;;;;;29.70;12.45;;;;;;;-0.59;100.00;100249.38;5158850;27;20107;-66
2023/01/28 02:21:28;;;;;;;30.83;12.00;;;;;;;-0.91;100.00;100236.03;5158890;27;20058;-68
2023/01/28 02:24:11;;;;;;;27.30;11.93;;;;;;;-0.88;100.00;100242.78;5158389;27;20309;-67
2023/01/28 02:26:55;;;;;;;27.30;10.88;;;;;;;-0.89;100.00;100225.00;5158324;27;20055;-68
2023/01/28 02:29:26;;;;;;;28.10;11.38;;;;;;;-0.97;100.00;100246.00;5158454;27;20139;-65
2023/01/28 02:31:58;;;;;;;26.27;11.20;;;;;;;-0.63;100.00;100250.13;5158248;27;20346;-66
2023/01/28 02:34:35;;;;;;;29.40;12.93;;;;;;;-0.82;100.00;100234.47;5158710;27;20046;-67
2023/01/28 02:37:07;;;;;;;28.30;11.88;;;;;;;-0.71;100.00;100219.94;5158114;27;20047;-69
2023/01/28 02:39:37;;;;;;;32.60;13.73;;;;;;;-0.72;100.00;100212.16;5158581;27;20434;-66
2023/01/28 02:42:07;;;;;;;31.98;12.68;;;;;;;-0.88;100.00;100229.31;5158734;27;20054;-69
2023/01/28 02:44:34;;;;;;;28.02;12.35;;;;;;;-0.93;100.00;100240.88;5158096;27;20080;-66
2023/01/28 02:49:49;;;;;;;25.45;11.95;;;;;;;-1.19;100.00;100245.31;5158166;27;20045;-66
2023/01/28 02:55:16;;;;;;;26.92;12.93;;;;;;;-1.51;100.00;100246.19;5157299;27;20297;-68
2023/01/28 02:57:52;;;;;;;29.75;13.20;;;;;;;-1.21;100.00;100256.31;5158123;27;20063;-70
2023/01/28 03:00:25;;;;;;;25.90;11.98;;;;;;;-1.16;100.00;100260.16;5158223;27;20376;-70
2023/01/28 03:02:59;;;;;;;25.50;11.82;;;;;;;-1.26;100.00;100258.19;5158262;27;20046;-68
2023/01/28 03:05:30;;;;;;;27.35;12.20;;;;;;;-1.42;100.00;100257.28;5158106;27;20042;-70
2023/01/28 03:07:58;;;;;;;20.70;9.35;;;;;;;-1.74;100.00;100260.78;5157771;27;20054;-68
2023/01/28 03:10:27;;;;;;;23.27;10.70;;;;;;;-1.68;100.00;100275.91;5158115;27;20054;-66
2023/01/28 03:38:19;;;;;;;22.45;11.50;;;;;;;-0.73;100.00;100224.00;5157627;27;20110;-69
2023/01/28 03:40:50;;;;;;;22.65;10.88;;;;;;;-0.84;100.00;100187.31;5157452;27;20090;-66
2023/01/28 03:43:16;;;;;;;25.23;11.45;;;;;;;-0.80;100.00;100164.19;5157516;27;20055;-68
2023/01/28 03:45:42;;;;;;;25.33;10.85;;;;;;;-1.08;100.00;100125.06;5157706;27;20055;-69
2023/01/28 03:48:09;;;;;;;23.10;10.43;;;;;;;-1.08;100.00;100138.53;5157278;27;20046;-66
2023/01/28 03:50:35;;;;;;;18.83;9.95;;;;;;;-1.18;100.00;100123.16;5157515;27;20396;-65
2023/01/28 03:53:11;;;;;;;19.13;10.55;;;;;;;-1.27;100.00;100092.44;5157319;27;20126;-70
2023/01/28 03:55:37;;;;;;;19.08;9.68;;;;;;;-1.07;100.00;100097.88;5157558;27;20097;-69
2023/01/28 03:58:04;;;;;;;22.85;9.65;;;;;;;-1.03;100.00;100100.88;5157153;27;20110;-66
2023/01/28 04:00:31;;;;;;;21.58;10.02;;;;;;;-0.93;100.00;100108.16;5157616;27;20153;-69
2023/01/28 04:02:57;;;;;;;18.38;9.05;;;;;;;-1.25;100.00;100095.69;5158427;27;20051;-67
2023/01/28 04:05:24;;;;;;;20.05;9.90;;;;;;;-0.99;100.00;100093.91;5161128;27;20297;-69
2023/01/28 04:07:54;;;;;;;18.33;9.30;;;;;;;-0.74;100.00;100090.44;5160623;27;20053;-68
2023/01/28 04:10:20;;;;;;;17.70;9.15;;;;;;;-1.40;100.00;100061.47;5160562;27;20053;-67
2023/01/28 04:12:50;;;;;;;22.33;9.15;;;;;;;-1.02;100.00;100113.25;5160667;27;20055;-68
2023/01/28 04:15:16;;;;;;;21.85;9.73;;;;;;;-0.80;100.00;100105.78;5160650;27;20455;-67
2023/01/28 04:17:46;;;;;;;21.27;9.32;;;;;;;-1.53;100.00;100076.22;5160634;27;20057;-65
2023/01/28 04:20:13;;;;;;;19.23;8.93;;;;;;;-1.30;100.00;100128.78;5160481;27;20051;-68
2023/01/28 04:22:40;;;;;;;17.50;8.30;;;;;;;-1.06;100.00;100145.28;5161038;27;20047;-68
2023/01/28 04:25:09;;;;;;;19.00;8.25;;;;;;;-1.23;100.00;100115.88;5160350;27;20061;-66
2023/01/28 04:27:35;;;;;;;17.08;9.00;;;;;;;-1.24;100.00;100118.81;5160698;27;20365;-68
2023/01/28 04:30:01;;;;;;;18.55;9.02;;;;;;;-1.37;100.00;100124.69;5160220;27;20055;-63
2023/01/28 04:32:27;;;;;;;16.52;7.55;;;;;;;-1.64;100.00;100157.09;5160070;27;20061;-68
2023/01/28 04:34:53;;;;;;;12.68;7.43;;;;;;;-1.50;100.00;100187.81;5160165;27;20062;-64
2023/01/28 04:37:20;;;;;;;16.52;8.93;;;;;;;-1.17;100.00;100204.69;5159998;27;20415;-67
2023/01/28 04:39:47;;;;;;;19.58;7.85;;;;;;;-1.29;100.00;100176.13;5160389;27;20050;-66
2023/01/28 04:42:13;;;;;;;21.50;8.77;;;;;;;-1.07;100.00;100178.63;5160065;27;20051;-64
2023/01/28 04:44:39;;;;;;;19.60;9.45;;;;;;;-1.24;100.00;100148.41;5160270;27;20428;-68
2023/01/28 04:47:05;;;;;;;17.17;8.60;;;;;;;-1.28;100.00;100156.22;5160182;27;20055;-64
2023/01/28 04:49:31;;;;;;;17.05;8.00;;;;;;;-1.16;100.00;100142.56;5160389;27;20047;-67
2023/01/28 04:51:57;;;;;;;16.13;7.75;;;;;;;-1.36;100.00;100134.41;5159866;27;20407;-65
2023/01/28 04:54:24;;;;;;;16.67;8.35;;;;;;;-1.25;100.00;100109.16;5160507;27;20046;-67
2023/01/28 04:56:51;;;;;;;19.33;8.85;;;;;;;-1.35;100.00;100095.66;5159675;27;20110;-68
2023/01/28 04:59:18;;;;;;;16.55;8.85;;;;;;;-1.42;100.00;100082.44;5159739;27;20057;-64
2023/01/28 05:01:45;;;;;;;20.55;8.90;;;;;;;-1.16;100.00;100082.56;5160013;27;20061;-70
2023/01/28 05:04:11;;;;;;;19.10;9.27;;;;;;;-1.45;100.00;100059.56;5159594;27;20050;-65
2023/01/28 05:06:37;;;;;;;20.42;8.70;;;;;;;-1.22;100.00;100068.25;5159751;27;20065;-71
2023/01/28 05:09:04;;;;;;;17.50;9.10;;;;;;;-1.18;100.00;100039.75;5159572;27;20419;-67
2023/01/28 05:11:30;;;;;;;20.63;9.88;;;;;;;-1.31;100.00;100002.59;5159961;27;20086;-67
2023/01/28 05:13:57;;;;;;;20.83;8.93;;;;;;;-1.70;100.00;100009.22;5159316;27;20374;-70
2023/01/28 05:16:23;;;;;;;25.40;8.77;;;;;;;-1.27;100.00;100062.84;5159735;27;20088;-68
2023/01/28 05:18:50;;;;;;;19.48;9.70;;;;;;;-1.12;100.00;100045.97;5159750;27;20053;-68
2023/01/28 05:21:16;;;;;;;19.30;9.15;;;;;;;-1.45;100.00;100002.28;5160087;27;20063;-71
2023/01/28 05:23:43;;;;;;;14.40;7.28;;;;;;;-1.33;100.00;99999.34;5159369;27;20323;-64
2023/01/28 05:26:10;;;;;;;17.48;8.07;;;;;;;-1.35;100.00;100015.75;5159959;27;20085;-64
2023/01/28 05:28:36;;;;;;;23.17;10.80;;;;;;;-1.10;100.00;100015.03;5159532;27;20050;-67
2023/01/28 05:31:04;;;;;;;19.52;9.00;;;;;;;-0.95;100.00;99990.81;5159301;27;20118;-69
2023/01/28 05:33:31;;;;;;;20.45;9.60;;;;;;;-0.88;100.00;99947.47;5159193;27;20060;-65
2023/01/28 05:35:57;;;;;;;20.45;8.57;;;;;;;-1.40;100.00;99883.13;5159291;27;20093;-69
2023/01/28 05:38:23;;;;;;;14.90;8.07;;;;;;;-1.15;100.00;99920.81;5159372;27;20355;-66
2023/01/28 05:40:49;;;;;;;21.27;9.77;;;;;;;-1.05;100.00;99952.31;5159076;27;20051;-69
2023/01/28 05:43:16;;;;;;;20.80;9.77;;;;;;;-1.44;100.00;99926.69;5159348;27;20086;-67
2023/01/28 05:45:42;;;;;;;20.33;9.57;;;;;;;-1.84;100.00;99950.81;5159092;27;20061;-67
2023/01/28 05:48:09;;;;;;;18.88;7.97;;;;;;;-1.84;100.00;100009.94;5159407;27;20398;-67
2023/01/28 05:50:35;;;;;;;17.55;8.20;;;;;;;-1.35;100.00;100096.47;5158874;27;20050;-69
2023/01/28 05:53:04;;;;;;;21.20;10.38;;;;;;;-1.47;100.00;100068.97;5159352;27;20461;-64
2023/01/28 05:55:30;;;;;;;16.65;10.07;;;;;;;-1.25;100.00;100052.66;5159128;27;20055;-66
2023/01/28 05:57:56;;;;;;;23.75;8.80;;;;;;;-1.94;100.00;100016.88;5158965;27;20054;-67
2023/01/28 06:00:23;;;;;;;21.63;9.23;;;;;;;-1.46;100.00;100117.13;5159062;27;20050;-67
2023/01/28 06:02:51;;;;;;;18.45;8.63;;;;;;;-1.32;100.00;100100.50;5158870;27;20060;-69
2023/01/28 06:05:18;;;;;;;21.30;9.55;;;;;;;-1.33;100.00;100059.34;5158867;27;20328;-66
2023/01/28 06:07:44;;;;;;;23.33;10.25;;;;;;;-1.16;100.00;100059.13;5158602;27;20054;-65
2023/01/28 06:10:11;;;;;;;26.77;10.77;;;;;;;-1.28;100.00;100031.66;5159279;27;20047;-69
2023/01/28 06:12:37;;;;;;;18.75;9.43;;;;;;;-1.13;100.00;100044.31;5158561;27;20051;-68
2023/01/28 06:15:04;;;;;;;29.60;11.65;;;;;;;-1.11;100.00;100026.03;5158874;27;20106;-67
2023/01/28 06:17:30;;;;;;;22.73;9.90;;;;;;;-1.22;100.00;100014.44;5158437;27;20046;-67
2023/01/28 06:19:57;;;;;;;17.83;8.90;;;;;;;-1.20;100.00;100026.56;5158813;27;20110;-66
2023/01/28 06:22:24;;;;;;;17.33;8.52;;;;;;;-1.07;100.00;100021.72;5158294;27;20046;-68
2023/01/28 06:24:50;;;;;;;21.73;9.57;;;;;;;-1.01;100.00;99996.44;5158617;27;20046;-65
2023/01/28 06:27:16;;;;;;;20.65;10.38;;;;;;;-0.99;100.00;99973.59;5157433;27;20354;-67
2023/01/28 06:29:42;;;;;;;25.45;9.60;;;;;;;-0.96;100.00;99942.63;5158292;27;20046;-65
2023/01/28 06:32:08;;;;;;;27.02;10.40;;;;;;;-0.88;100.00;99960.13;5158302;27;20046;-66
2023/01/28 06:34:35;;;;;;;27.80;11.70;;;;;;;-1.01;100.00;99929.97;5158572;27;20107;-66
2023/01/28 06:37:03;;;;;;;20.10;9.77;;;;;;;-0.92;100.00;99954.47;5158622;27;20061;-66
2023/01/28 06:39:31;;;;;;;20.67;9.85;;;;;;;-1.10;100.00;99920.84;5158389;27;20078;-64
2023/01/28 06:41:58;;;;;;;23.45;9.70;;;;;;;-0.89;100.00;99939.66;5157994;27;20191;-69
2023/01/28 06:44:24;;;;;;;23.42;10.13;;;;;;;-1.34;100.00;99912.47;5158070;27;20058;-68
2023/01/28 06:46:50;;;;;;;18.75;8.23;;;;;;;-1.36;100.00;99973.81;5158451;27;20065;-68
2023/01/28 06:49:16;;;;;;;20.30;10.07;;;;;;;-1.06;100.00;99975.72;5157930;27;20076;-70
2023/01/28 06:51:43;;;;;;;21.98;9.70;;;;;;;-1.09;100.00;99935.91;5158335;27;20051;-67
2023/01/28 06:54:09;;;;;;;21.92;10.38;;;;;;;-1.12;100.00;99925.66;5157914;27;20051;-67
2023/01/28 06:56:36;;;;;;;28.48;11.07;;;;;;;-1.05;100.00;99912.75;5157976;27;20354;-67
2023/01/28 06:59:02;;;;;;;25.08;11.35;;;;;;;-0.81;100.00;99947.19;5157959;27;20080;-64
2023/01/28 07:01:28;;;;;;;20.50;10.20;;;;;;;-0.69;100.00;99926.19;5157995;27;20107;-69
2023/01/28 07:03:55;;;;;;;23.23;11.38;;;;;;;-0.99;100.00;99902.78;5157997;27;20327;-65
2023/01/28 07:06:21;;;;;;;23.63;10.68;;;;;;;-1.15;100.00;99885.84;5157777;27;20341;-68
2023/01/28 07:08:48;;;;;;;23.63;10.65;;;;;;;-1.28;100.00;99903.31;5157615;27;20446;-67
2023/01/28 07:11:14;;;;;;;21.67;10.38;;;;;;;-0.84;100.00;99947.72;5157679;27;20438;-69
2023/01/28 07:13:42;;;;;;;23.30;10.00;;;;;;;-1.11;100.00;99894.97;5157619;27;20047;-70
2023/01/28 07:16:09;;;;;;;25.00;11.02;;;;;;;-0.63;100.00;99908.94;5157555;27;20046;-70
2023/01/28 07:18:35;;;;;;;21.98;10.50;;;;;;;-0.59;100.00;99856.16;5157592;27;20060;-69
2023/01/28 07:21:01;;;;;;;22.58;10.07;;;;;;;-1.23;100.00;99797.63;5157495;27;20043;-68
2023/01/28 07:23:27;;;;;;;27.60;12.40;;;;;;;-0.83;100.00;99855.94;5157770;27;20042;-67
2023/01/28 07:25:54;;;;;;;24.05;10.27;;;;;;;-0.91;100.00;99818.00;5157653;27;20444;-70
2023/01/28 07:28:20;;;;;;;22.02;10.40;;;;;;;-0.69;100.00;99853.47;5157631;27;20491;-67
2023/01/28 07:30:48;;;;;;;25.55;11.80;;;;;;;-0.56;100.00;99830.56;5157352;27;20050;-69
2023/01/28 07:33:15;;;;;;;30.35;11.00;;;;;;;-0.40;100.00;99825.91;5157484;27;20051;-68
2023/01/28 07:35:41;;;;;;;25.73;10.32;;;;;;;-0.26;100.00;99795.41;5157719;27;20496;-68
2023/01/28 07:38:07;;;;;;;21.88;10.73;;;;;;;-0.31;100.00;99733.44;5158965;27;20107;-69
2023/01/28 07:40:33;;;;;;;22.88;10.85;;;;;;;-0.31;100.00;99701.13;5160898;27;20065;-67
2023/01/28 07:43:00;;;;;;;29.00;11.43;;;;;;;-0.28;100.00;99680.91;5161366;27;20141;-66
2023/01/28 07:45:27;;;;;;;24.27;12.45;;;;;;;-0.43;100.00;99645.97;5161145;27;20409;-68
2023/01/28 07:47:56;;;;;;;27.10;12.30;;;;;;;-0.52;100.00;99649.28;5161278;27;20145;-68
2023/01/28 07:50:22;;;;;;;25.38;12.77;;;;;;;-0.71;100.00;99646.41;5160860;27;20047;-69
2023/01/28 07:52:48;;;;;;;24.27;11.95;;;;;;;-0.74;100.00;99681.16;5161035;27;20051;-65
2023/01/28 07:55:15;;;;;;;24.73;12.23;;;;;;;-0.68;100.00;99698.13;5161048;27;20077;-69
2023/01/28 07:57:48;;;;;;;24.13;11.38;;;;;;;-1.01;100.00;99701.22;5160782;27;20089;-67
2023/01/28 08:00:15;;;;;;;24.25;11.35;;;;;;;-0.75;100.00;99769.22;5160931;27;20054;-65
2023/01/28 08:02:43;;;;;;;21.58;10.77;;;;;;;-0.59;100.00;99802.28;5160570;27;20062;-66
2023/01/28 08:05:10;;;;;;;22.83;11.05;;;;;;;-0.62;100.00;99785.88;5161060;27;20061;-67
2023/01/28 08:07:36;;;;;;;21.38;10.73;;;;;;;-0.64;100.00;99759.19;5160732;27;20055;-69
2023/01/28 08:10:03;;;;;;;25.52;12.00;;;;;;;-0.88;100.00;99717.84;5160958;27;20047;-65
2023/01/28 08:12:29;;;;;;;26.55;11.55;;;;;;;-0.53;100.00;99739.25;5160402;27;20419;-65
2023/01/28 08:14:56;;;;;;;29.80;11.60;;;;;;;-0.61;100.00;99734.41;5160893;27;20327;-68
2023/01/28 08:17:22;;;;;;;25.60;10.70;;;;;;;-0.51;100.00;99741.66;5160362;27;20050;-65
2023/01/28 08:19:48;;;;;;;29.65;13.60;;;;;;;-0.62;100.00;99727.44;5160525;27;20057;-69
2023/01/28 08:22:15;;;;;;;26.27;12.65;;;;;;;-0.27;100.00;99733.69;5160432;27;20057;-65
2023/01/28 08:24:41;;;;;;;25.25;11.65;;;;;;;-0.42;100.00;99696.09;5160484;27;20339;-67
2023/01/28 08:27:07;;;;;;;31.15;12.18;;;;;;;-0.57;100.00;99648.50;5160426;27;20050;-68
2023/01/28 08:29:33;;;;;;;33.45;12.80;;;;;;;-0.87;100.00;99673.69;5160389;27;20069;-64
2023/01/28 08:31:59;;;;;;;26.08;11.35;;;;;;;-0.55;100.00;99749.47;5160352;27;20054;-70
2023/01/28 08:34:26;;;;;;;31.15;13.23;;;;;;;-0.30;100.00;99737.78;5160241;27;20051;-65
2023/01/28 08:36:52;;;;;;;26.17;11.98;;;;;;;-0.53;100.00;99654.94;5160385;27;20396;-69
2023/01/28 08:39:19;;;;;;;28.17;11.15;;;;;;;-0.21;100.00;99624.00;5160050;27;20050;-66
2023/01/28 08:41:45;;;;;;;26.80;12.07;;;;;;;-0.33;100.00;99632.44;5160495;27;20047;-65
2023/01/28 08:44:11;;;;;;;26.50;11.63;;;;;;;-0.38;100.00;99600.16;5159814;27;20434;-68
2023/01/28 08:46:37;;;;;;;24.55;11.25;;;;;;;-0.72;100.00;99617.09;5159763;27;20057;-65
2023/01/28 08:49:04;;;;;;;23.40;11.55;;;;;;;-0.04;100.00;99641.34;5159328;27;20130;-69
2023/01/28 08:51:30;;;;;;;21.80;9.75;;;;;;;-0.69;100.00;99551.91;5159621;27;20047;-65
2023/01/28 08:53:56;;;;;;;26.50;11.75;;;;;;;-0.15;100.00;99582.44;5159870;27;20400;-66
2023/01/28 08:56:23;;;;;;;23.42;11.18;;;;;;;-0.33;100.00;99538.16;5159991;27;20061;-67
2023/01/28 08:58:49;;;;;;;25.00;11.55;;;;;;;-0.31;100.00;99530.59;5160100;27;20050;-67
2023/01/28 09:01:16;;;;;;;24.67;10.88;;;;;;;0.05;100.00;99527.53;5159835;27;20047;-65
2023/01/28 09:03:42;;;;;;;23.42;11.07;;;;;;;-0.03;100.00;99473.16;5160065;27;20081;-68
2023/01/28 09:06:08;;;;;;;21.63;10.80;;;;;;;0.16;100.00;99410.38;5159545;27;20049;-64
2023/01/28 09:08:34;;;;;;;22.10;10.13;;;;;;;0.19;100.00;99374.75;5159999;27;20054;-68
2023/01/28 09:11:00;;;;;;;31.55;10.48;;;;;;;-0.05;100.00;99353.25;5159780;27;20077;-63
2023/01/28 09:13:28;;;;;;;26.67;11.93;;;;;;;0.34;100.00;99346.78;5159939;27;20050;-67
2023/01/28 09:15:55;;;;;;;27.08;11.98;;;;;;;0.25;100.00;99303.50;5159442;27;20473;-68
2023/01/28 09:18:21;;;;;;;23.77;11.85;;;;;;;-0.02;100.00;99294.19;5159157;27;20047;-67
2023/01/28 09:20:47;;;;;;;24.58;9.98;;;;;;;-0.05;100.00;99285.88;5159321;27;20042;-69
2023/01/28 09:23:13;;;;;;;21.10;10.02;;;;;;;0.09;100.00;99321.00;5159518;27;20111;-67
2023/01/28 09:25:40;;;;;;;21.98;10.90;;;;;;;0.12;100.00;99306.94;5159517;27;20051;-68
2023/01/28 09:28:06;;;;;;;26.83;12.35;;;;;;;-0.27;100.00;99319.59;5159276;27;20077;-66
2023/01/28 09:30:34;;;;;;;26.50;11.60;;;;;;;0.08;100.00;99351.75;5159711;27;20337;-66
2023/01/28 09:33:00;;;;;;;22.35;10.75;;;;;;;-0.20;100.00;99316.53;5159038;27;20355;-68
2023/01/28 09:35:26;;;;;;;21.42;10.25;;;;;;;0.05;100.00;99314.59;5159277;27;20053;-70
2023/01/28 09:37:56;;;;;;;21.70;10.73;;;;;;;0.04;100.00;99294.13;5159010;27;20061;-66
2023/01/28 09:40:31;;;;;;;20.40;9.38;;;;;;;0.16;100.00;99268.28;5159437;27;20051;-67
2023/01/28 09:43:07;;;;;;;22.80;10.38;;;;;;;-0.23;100.00;99282.09;5159221;27;21134;-67
2023/01/28 09:45:40;;;;;;;18.98;8.90;;;;;;;-0.12;100.00;99247.72;5158995;27;20070;-66
2023/01/28 09:48:12;;;;;;;25.70;9.93;;;;;;;0.08;100.00;99241.22;5159255;27;20079;-69
2023/01/28 09:50:42;;;;;;;18.13;8.70;;;;;;;-0.30;100.00;99200.81;5159063;27;20060;-66
2023/01/28 09:53:15;;;;;;;22.85;9.38;;;;;;;-0.05;100.00;99216.59;5159494;27;20058;-67
2023/01/28 09:55:46;;;;;;;19.08;8.95;;;;;;;-0.08;100.00;99209.09;5158666;27;20051;-65
2023/01/28 09:58:14;;;;;;;14.88;7.75;;;;;;;-0.14;100.00;99177.94;5159040;27;20078;-68
2023/01/28 10:00:52;;;;;;;16.08;7.90;;;;;;;0.22;100.00;99242.06;5158188;27;20095;-65
2023/01/28 10:03:33;;;;;;;15.35;8.85;;;;;;;-0.16;100.00;99234.03;5158339;27;20050;-69
2023/01/28 10:06:13;;;;;;;18.98;8.52;;;;;;;0.97;100.00;99243.72;5158750;27;20415;-66
2023/01/28 10:09:04;;;;;;;14.68;7.45;;;;;;;1.10;100.00;99047.72;5158352;27;20086;-67
2023/01/28 10:11:42;;;;;;;20.55;9.02;;;;;;;0.84;100.00;98950.34;5158730;27;20079;-70
2023/01/28 10:14:18;;;;;;;19.48;9.57;;;;;;;0.84;100.00;98934.94;5158332;27;20047;-68
2023/01/28 10:16:51;;;;;;;20.30;10.02;;;;;;;0.33;100.00;98935.28;5158441;27;20050;-69
2023/01/28 10:19:23;;;;;;;15.68;8.10;;;;;;;0.18;100.00;98950.69;5158626;27;20051;-67
2023/01/28 10:21:54;;;;;;;22.05;9.85;;;;;;;0.52;100.00;99007.97;5158420;27;20076;-69
2023/01/28 10:24:31;;;;;;;15.98;8.52;;;;;;;0.69;100.00;99006.25;5158787;27;20042;-68
2023/01/28 10:26:57;;;;;;;19.58;9.00;;;;;;;0.84;100.00;98972.72;5158382;27;20050;-66
2023/01/28 10:29:26;;;;;;;19.52;8.68;;;;;;;0.74;100.00;98945.19;5158161;27;20419;-65
2023/01/28 10:31:57;;;;;;;16.00;8.80;;;;;;;-0.13;100.00;98973.97;5158281;27;20054;-65
2023/01/28 10:34:23;;;;;;;17.83;8.32;;;;;;;-0.11;100.00;98988.72;5158669;27;20057;-69
2023/01/28 10:36:50;;;;;;;18.60;9.13;;;;;;;-0.14;100.00;99013.56;5158172;27;20046;-66
2023/01/28 10:39:19;;;;;;;21.38;9.15;;;;;;;-0.32;100.00;99044.88;5158074;27;20046;-68
2023/01/28 10:41:46;;;;;;;15.20;8.02;;;;;;;-0.05;100.00;99073.78;5158269;27;20050;-67
2023/01/28 10:44:17;;;;;;;18.98;8.98;;;;;;;0.58;100.00;99079.63;5158320;27;20042;-70
2023/01/28 10:46:47;;;;;;;19.30;9.20;;;;;;;0.21;100.00;99035.56;5158242;27;20042;-69
2023/01/28 10:49:18;;;;;;;24.58;10.13;;;;;;;-0.02;100.00;99048.94;5158067;27;20054;-69
2023/01/28 10:51:44;;;;;;;19.02;8.88;;;;;;;-0.18;100.00;99141.91;5158376;27;20047;-68
2023/01/28 10:54:21;;;;;;;21.42;9.48;;;;;;;0.32;100.00;99144.81;5158011;27;20385;-67
2023/01/28 10:56:49;;;;;;;26.60;9.90;;;;;;;0.16;100.00;99111.13;5158453;27;20043;-68
2023/01/28 10:59:22;;;;;;;16.83;8.82;;;;;;;0.22;100.00;99099.97;5157778;27;20051;-67
2023/01/28 11:01:50;;;;;;;21.85;10.00;;;;;;;0.09;100.00;99110.72;5157870;27;20106;-68
2023/01/28 11:04:21;;;;;;;21.23;10.60;;;;;;;-0.04;100.00;99123.88;5158116;27;20054;-67
2023/01/28 11:07:00;;;;;;;22.85;11.20;;;;;;;0.10;100.00;99164.38;5157801;27;20046;-66
2023/01/28 11:09:29;;;;;;;19.90;9.80;;;;;;;0.29;100.00;99171.59;5158209;27;20093;-68
2023/01/28 11:11:56;;;;;;;21.35;10.88;;;;;;;0.44;100.00;99133.56;5157886;27;20391;-68
2023/01/28 11:14:24;;;;;;;23.13;10.35;;;;;;;0.28;100.00;99107.97;5161547;27;20061;-66
2023/01/28 11:16:53;;;;;;;18.13;8.65;;;;;;;0.60;100.00;99115.16;5161508;27;20047;-69
2023/01/28 11:19:33;;;;;;;25.67;11.68;;;;;;;0.24;100.00;99072.72;5161236;27;20054;-70
2023/01/28 11:22:00;;;;;;;14.77;7.53;;;;;;;0.13;100.00;99069.41;5161617;27;20065;-69
2023/01/28 11:24:29;;;;;;;13.88;7.95;;;;;;;0.36;100.00;99074.91;5161546;27;20051;-68
2023/01/28 11:26:57;;;;;;;17.80;8.98;;;;;;;0.44;100.00;99052.66;5161649;27;20057;-69
2023/01/28 11:29:27;;;;;;;20.45;9.55;;;;;;;0.37;100.00;99036.88;5161175;27;20051;-68
2023/01/28 11:31:54;;;;;;;14.07;7.43;;;;;;;0.70;100.00;99009.75;5161568;27;20348;-66
2023/01/28 11:34:26;;;;;;;16.90;9.38;;;;;;;0.71;100.00;98946.59;5161083;27;20053;-69
2023/01/28 11:36:54;;;;;;;19.23;9.80;;;;;;;0.61;100.00;98934.13;5161220;27;20058;-67
2023/01/28 11:39:24;;;;;;;30.02;11.38;;;;;;;0.11;100.00;98914.47;5161005;27;20466;-70
2023/01/28 11:41:52;;;;;;;25.02;10.82;;;;;;;0.76;100.00;98954.56;5161524;27;20047;-70
2023/01/28 11:44:21;;;;;;;19.35;10.32;;;;;;;0.58;100.00;98888.09;5160953;27;20042;-69